sensor_id;sensor_type;location;lat;lon;timestamp;P1;durP1;ratioP1;P2;durP2;ratioP2
18001;SDS011;9126;48.160;17.130;2022-09-13T00:01:17;2.40;;;2.20;;
18001;SDS011;9126;48.160;17.130;2022-09-13T00:03:46;5.07;;;2.47;;
18001;SDS011;9126;48.160;17.130;2022-09-13T00:06:16;3.90;;;2.30;;
18001;SDS011;9126;48.160;17.130;2022-09-13T00:08:44;4.00;;;2.60;;
18001;SDS011;9126;48.160;17.130;2022-09-13T00:11:13;3.93;;;2.63;;
18001;SDS011;9126;48.160;17.130;2022-09-13T00:13:43;5.77;;;2.40;;
18001;SDS011;9126;48.160;17.130;2022-09-13T00:16:13;2.83;;;1.73;;
18001;SDS011;9126;48.160;17.130;2022-09-13T00:18:44;3.53;;;1.73;;
18001;SDS011;9126;48.160;17.130;2022-09-13T00:21:15;2.20;;;2.00;;
18001;SDS011;9126;48.160;17.130;2022-09-13T00:23:44;3.90;;;2.57;;
18001;SDS011;9126;48.160;17.130;2022-09-13T00:26:13;2.37;;;2.10;;
18001;SDS011;9126;48.160;17.130;2022-09-13T00:28:42;2.40;;;2.20;;
18001;SDS011;9126;48.160;17.130;2022-09-13T00:31:10;3.23;;;1.97;;
18001;SDS011;9126;48.160;17.130;2022-09-13T00:33:38;4.33;;;2.10;;
18001;SDS011;9126;48.160;17.130;2022-09-13T00:36:08;5.00;;;2.40;;
18001;SDS011;9126;48.160;17.130;2022-09-13T00:38:39;2.47;;;2.27;;
18001;SDS011;9126;48.160;17.130;2022-09-13T00:41:08;3.57;;;2.47;;
18001;SDS011;9126;48.160;17.130;2022-09-13T00:43:42;4.60;;;2.83;;
18001;SDS011;9126;48.160;17.130;2022-09-13T00:46:13;3.47;;;2.37;;
18001;SDS011;9126;48.160;17.130;2022-09-13T00:48:44;4.60;;;2.97;;
18001;SDS011;9126;48.160;17.130;2022-09-13T00:51:15;2.93;;;2.40;;
18001;SDS011;9126;48.160;17.130;2022-09-13T00:53:43;3.50;;;3.13;;
18001;SDS011;9126;48.160;17.130;2022-09-13T00:56:14;5.00;;;2.70;;
18001;SDS011;9126;48.160;17.130;2022-09-13T00:58:48;5.53;;;2.60;;
18001;SDS011;9126;48.160;17.130;2022-09-13T01:01:22;3.73;;;2.40;;
18001;SDS011;9126;48.160;17.130;2022-09-13T01:03:56;4.77;;;2.70;;
18001;SDS011;9126;48.160;17.130;2022-09-13T01:06:27;4.10;;;3.03;;
18001;SDS011;9126;48.160;17.130;2022-09-13T01:09:04;2.93;;;2.57;;
18001;SDS011;9126;48.160;17.130;2022-09-13T01:11:35;3.00;;;2.70;;
18001;SDS011;9126;48.160;17.130;2022-09-13T01:14:10;4.07;;;2.90;;
18001;SDS011;9126;48.160;17.130;2022-09-13T01:16:38;3.33;;;2.67;;
18001;SDS011;9126;48.160;17.130;2022-09-13T01:19:05;4.67;;;2.80;;
18001;SDS011;9126;48.160;17.130;2022-09-13T01:21:54;2.97;;;2.70;;
18001;SDS011;9126;48.160;17.130;2022-09-13T01:24:53;2.50;;;2.30;;
18001;SDS011;9126;48.160;17.130;2022-09-13T01:27:37;3.97;;;2.67;;
18001;SDS011;9126;48.160;17.130;2022-09-13T01:30:17;2.87;;;2.40;;
18001;SDS011;9126;48.160;17.130;2022-09-13T01:32:57;2.20;;;2.00;;
18001;SDS011;9126;48.160;17.130;2022-09-13T01:38:52;3.60;;;2.37;;
18001;SDS011;9126;48.160;17.130;2022-09-13T01:41:30;4.83;;;2.10;;
18001;SDS011;9126;48.160;17.130;2022-09-13T01:44:12;2.80;;;2.50;;
18001;SDS011;9126;48.160;17.130;2022-09-13T01:46:53;3.13;;;1.83;;
18001;SDS011;9126;48.160;17.130;2022-09-13T01:49:29;4.27;;;2.27;;
18001;SDS011;9126;48.160;17.130;2022-09-13T01:52:02;3.23;;;2.20;;
18001;SDS011;9126;48.160;17.130;2022-09-13T01:54:36;3.37;;;2.10;;
18001;SDS011;9126;48.160;17.130;2022-09-13T01:57:10;4.00;;;2.30;;
18001;SDS011;9126;48.160;17.130;2022-09-13T01:59:43;4.50;;;2.60;;
18001;SDS011;9126;48.160;17.130;2022-09-13T02:02:18;2.57;;;2.37;;
18001;SDS011;9126;48.160;17.130;2022-09-13T02:04:52;2.10;;;2.00;;
18001;SDS011;9126;48.160;17.130;2022-09-13T02:07:26;3.57;;;2.00;;
18001;SDS011;9126;48.160;17.130;2022-09-13T02:09:58;2.93;;;1.93;;
18001;SDS011;9126;48.160;17.130;2022-09-13T02:12:30;2.53;;;2.10;;
18001;SDS011;9126;48.160;17.130;2022-09-13T02:15:02;2.93;;;2.30;;
18001;SDS011;9126;48.160;17.130;2022-09-13T02:17:35;4.33;;;2.30;;
18001;SDS011;9126;48.160;17.130;2022-09-13T02:20:06;4.67;;;2.40;;
18001;SDS011;9126;48.160;17.130;2022-09-13T02:22:38;3.50;;;2.23;;
18001;SDS011;9126;48.160;17.130;2022-09-13T02:25:12;5.50;;;2.30;;
18001;SDS011;9126;48.160;17.130;2022-09-13T02:27:42;4.47;;;2.20;;
18001;SDS011;9126;48.160;17.130;2022-09-13T02:30:14;8.80;;;3.07;;
18001;SDS011;9126;48.160;17.130;2022-09-13T02:32:44;8.07;;;2.77;;
18001;SDS011;9126;48.160;17.130;2022-09-13T02:35:17;3.37;;;2.60;;
18001;SDS011;9126;48.160;17.130;2022-09-13T02:37:49;4.13;;;3.10;;
18001;SDS011;9126;48.160;17.130;2022-09-13T02:40:25;7.67;;;2.70;;
18001;SDS011;9126;48.160;17.130;2022-09-13T02:42:57;3.07;;;2.30;;
18001;SDS011;9126;48.160;17.130;2022-09-13T02:45:32;8.30;;;3.03;;
18001;SDS011;9126;48.160;17.130;2022-09-13T02:48:07;4.67;;;2.83;;
18001;SDS011;9126;48.160;17.130;2022-09-13T02:50:44;4.80;;;3.10;;
18001;SDS011;9126;48.160;17.130;2022-09-13T02:53:22;5.87;;;2.57;;
18001;SDS011;9126;48.160;17.130;2022-09-13T02:55:57;6.10;;;3.00;;
18001;SDS011;9126;48.160;17.130;2022-09-13T02:58:33;4.33;;;2.80;;
18001;SDS011;9126;48.160;17.130;2022-09-13T03:01:07;5.23;;;3.40;;
18001;SDS011;9126;48.160;17.130;2022-09-13T03:03:36;3.67;;;2.80;;
18001;SDS011;9126;48.160;17.130;2022-09-13T03:06:04;3.90;;;2.87;;
18001;SDS011;9126;48.160;17.130;2022-09-13T03:08:33;4.70;;;3.20;;
18001;SDS011;9126;48.160;17.130;2022-09-13T03:11:03;6.37;;;3.03;;
18001;SDS011;9126;48.160;17.130;2022-09-13T03:14:00;5.20;;;3.20;;
18001;SDS011;9126;48.160;17.130;2022-09-13T03:16:42;5.80;;;3.30;;
18001;SDS011;9126;48.160;17.130;2022-09-13T03:19:32;6.43;;;3.27;;
18001;SDS011;9126;48.160;17.130;2022-09-13T03:22:22;4.93;;;3.40;;
18001;SDS011;9126;48.160;17.130;2022-09-13T03:25:05;5.47;;;3.13;;
18001;SDS011;9126;48.160;17.130;2022-09-13T03:27:40;5.83;;;3.53;;
18001;SDS011;9126;48.160;17.130;2022-09-13T03:30:13;4.90;;;3.10;;
18001;SDS011;9126;48.160;17.130;2022-09-13T03:32:45;6.03;;;3.03;;
18001;SDS011;9126;48.160;17.130;2022-09-13T03:35:24;6.53;;;2.87;;
18001;SDS011;9126;48.160;17.130;2022-09-13T03:37:55;5.63;;;3.17;;
18001;SDS011;9126;48.160;17.130;2022-09-13T03:40:29;4.83;;;3.50;;
18001;SDS011;9126;48.160;17.130;2022-09-13T03:43:03;7.07;;;3.40;;
18001;SDS011;9126;48.160;17.130;2022-09-13T03:45:37;6.43;;;3.90;;
18001;SDS011;9126;48.160;17.130;2022-09-13T03:48:08;7.03;;;3.97;;
18001;SDS011;9126;48.160;17.130;2022-09-13T03:50:39;6.23;;;5.10;;
18001;SDS011;9126;48.160;17.130;2022-09-13T03:53:09;6.63;;;4.60;;
18001;SDS011;9126;48.160;17.130;2022-09-13T03:55:41;6.90;;;4.53;;
18001;SDS011;9126;48.160;17.130;2022-09-13T03:58:11;6.33;;;4.23;;
18001;SDS011;9126;48.160;17.130;2022-09-13T04:00:41;7.77;;;4.53;;
18001;SDS011;9126;48.160;17.130;2022-09-13T04:03:09;6.97;;;4.37;;
18001;SDS011;9126;48.160;17.130;2022-09-13T04:05:41;8.13;;;4.53;;
18001;SDS011;9126;48.160;17.130;2022-09-13T04:08:09;12.33;;;5.23;;
18001;SDS011;9126;48.160;17.130;2022-09-13T04:10:39;7.80;;;5.00;;
18001;SDS011;9126;48.160;17.130;2022-09-13T04:13:07;5.10;;;4.40;;
18001;SDS011;9126;48.160;17.130;2022-09-13T04:15:34;7.37;;;4.17;;
18001;SDS011;9126;48.160;17.130;2022-09-13T04:18:03;6.23;;;4.67;;
18001;SDS011;9126;48.160;17.130;2022-09-13T04:20:30;5.17;;;4.20;;
18001;SDS011;9126;48.160;17.130;2022-09-13T04:22:59;5.77;;;4.43;;
18001;SDS011;9126;48.160;17.130;2022-09-13T04:25:27;6.10;;;4.80;;
18001;SDS011;9126;48.160;17.130;2022-09-13T04:27:56;7.70;;;4.67;;
18001;SDS011;9126;48.160;17.130;2022-09-13T04:30:25;9.27;;;5.30;;
18001;SDS011;9126;48.160;17.130;2022-09-13T04:32:52;6.87;;;4.90;;
18001;SDS011;9126;48.160;17.130;2022-09-13T04:35:23;6.40;;;5.80;;
18001;SDS011;9126;48.160;17.130;2022-09-13T04:37:53;8.43;;;6.30;;
18001;SDS011;9126;48.160;17.130;2022-09-13T04:40:23;9.60;;;6.03;;
18001;SDS011;9126;48.160;17.130;2022-09-13T04:42:54;7.50;;;6.43;;
18001;SDS011;9126;48.160;17.130;2022-09-13T04:45:21;8.03;;;6.53;;
18001;SDS011;9126;48.160;17.130;2022-09-13T04:47:50;9.03;;;6.57;;
18001;SDS011;9126;48.160;17.130;2022-09-13T04:50:18;7.13;;;6.17;;
18001;SDS011;9126;48.160;17.130;2022-09-13T04:52:46;7.87;;;6.53;;
18001;SDS011;9126;48.160;17.130;2022-09-13T04:55:13;10.67;;;6.17;;
18001;SDS011;9126;48.160;17.130;2022-09-13T04:57:45;8.93;;;6.97;;
18001;SDS011;9126;48.160;17.130;2022-09-13T05:00:13;8.73;;;6.63;;
18001;SDS011;9126;48.160;17.130;2022-09-13T05:02:40;8.00;;;6.57;;
18001;SDS011;9126;48.160;17.130;2022-09-13T05:05:08;10.23;;;6.07;;
18001;SDS011;9126;48.160;17.130;2022-09-13T05:07:36;8.03;;;6.40;;
18001;SDS011;9126;48.160;17.130;2022-09-13T05:10:04;8.40;;;6.03;;
18001;SDS011;9126;48.160;17.130;2022-09-13T05:12:32;10.87;;;5.93;;
18001;SDS011;9126;48.160;17.130;2022-09-13T05:15:01;8.50;;;4.97;;
18001;SDS011;9126;48.160;17.130;2022-09-13T05:17:29;6.23;;;4.87;;
18001;SDS011;9126;48.160;17.130;2022-09-13T05:19:57;7.13;;;4.50;;
18001;SDS011;9126;48.160;17.130;2022-09-13T05:22:24;4.90;;;4.03;;
18001;SDS011;9126;48.160;17.130;2022-09-13T05:24:52;5.47;;;4.40;;
18001;SDS011;9126;48.160;17.130;2022-09-13T05:27:21;4.93;;;3.97;;
18001;SDS011;9126;48.160;17.130;2022-09-13T05:29:49;7.73;;;4.70;;
18001;SDS011;9126;48.160;17.130;2022-09-13T05:32:19;6.67;;;4.23;;
18001;SDS011;9126;48.160;17.130;2022-09-13T05:34:47;8.93;;;5.00;;
18001;SDS011;9126;48.160;17.130;2022-09-13T05:37:17;7.20;;;4.90;;
18001;SDS011;9126;48.160;17.130;2022-09-13T05:39:44;8.27;;;4.90;;
18001;SDS011;9126;48.160;17.130;2022-09-13T05:42:12;7.90;;;4.53;;
18001;SDS011;9126;48.160;17.130;2022-09-13T05:44:39;10.77;;;6.27;;
18001;SDS011;9126;48.160;17.130;2022-09-13T05:47:06;13.30;;;7.80;;
18001;SDS011;9126;48.160;17.130;2022-09-13T05:49:36;15.67;;;11.20;;
18001;SDS011;9126;48.160;17.130;2022-09-13T05:52:03;11.13;;;9.17;;
18001;SDS011;9126;48.160;17.130;2022-09-13T05:54:30;9.07;;;8.10;;
18001;SDS011;9126;48.160;17.130;2022-09-13T05:56:58;7.00;;;6.13;;
18001;SDS011;9126;48.160;17.130;2022-09-13T05:59:29;7.13;;;6.07;;
18001;SDS011;9126;48.160;17.130;2022-09-13T06:01:58;8.67;;;5.53;;
18001;SDS011;9126;48.160;17.130;2022-09-13T06:04:25;9.60;;;4.30;;
18001;SDS011;9126;48.160;17.130;2022-09-13T06:06:56;5.47;;;4.33;;
18001;SDS011;9126;48.160;17.130;2022-09-13T06:09:23;8.57;;;4.57;;
18001;SDS011;9126;48.160;17.130;2022-09-13T06:11:51;9.43;;;5.27;;
18001;SDS011;9126;48.160;17.130;2022-09-13T06:14:18;9.17;;;5.07;;
18001;SDS011;9126;48.160;17.130;2022-09-13T06:16:45;12.77;;;4.27;;
18001;SDS011;9126;48.160;17.130;2022-09-13T06:19:13;9.20;;;4.53;;
18001;SDS011;9126;48.160;17.130;2022-09-13T06:21:40;7.00;;;4.90;;
18001;SDS011;9126;48.160;17.130;2022-09-13T06:24:09;4.53;;;3.40;;
18001;SDS011;9126;48.160;17.130;2022-09-13T06:26:37;5.33;;;3.20;;
18001;SDS011;9126;48.160;17.130;2022-09-13T06:29:04;4.77;;;2.97;;
18001;SDS011;9126;48.160;17.130;2022-09-13T06:31:31;7.67;;;3.43;;
18001;SDS011;9126;48.160;17.130;2022-09-13T06:34:00;3.43;;;2.83;;
18001;SDS011;9126;48.160;17.130;2022-09-13T06:36:30;3.80;;;3.10;;
18001;SDS011;9126;48.160;17.130;2022-09-13T06:38:58;3.33;;;2.93;;
18001;SDS011;9126;48.160;17.130;2022-09-13T06:41:28;4.90;;;3.37;;
18001;SDS011;9126;48.160;17.130;2022-09-13T06:43:55;3.47;;;2.90;;
18001;SDS011;9126;48.160;17.130;2022-09-13T06:46:26;4.17;;;3.20;;
18001;SDS011;9126;48.160;17.130;2022-09-13T06:48:58;4.90;;;3.53;;
18001;SDS011;9126;48.160;17.130;2022-09-13T06:51:26;6.47;;;3.20;;
18001;SDS011;9126;48.160;17.130;2022-09-13T06:53:55;4.37;;;3.40;;
18001;SDS011;9126;48.160;17.130;2022-09-13T06:56:24;4.57;;;3.77;;
18001;SDS011;9126;48.160;17.130;2022-09-13T06:58:56;8.13;;;4.57;;
18001;SDS011;9126;48.160;17.130;2022-09-13T07:01:25;5.10;;;3.90;;
18001;SDS011;9126;48.160;17.130;2022-09-13T07:03:54;4.40;;;3.50;;
18001;SDS011;9126;48.160;17.130;2022-09-13T07:06:29;6.53;;;3.97;;
18001;SDS011;9126;48.160;17.130;2022-09-13T07:09:00;5.53;;;3.75;;
18001;SDS011;9126;48.160;17.130;2022-09-13T07:11:29;5.10;;;3.70;;
18001;SDS011;9126;48.160;17.130;2022-09-13T07:14:00;5.67;;;3.70;;
18001;SDS011;9126;48.160;17.130;2022-09-13T07:16:28;4.03;;;3.63;;
18001;SDS011;9126;48.160;17.130;2022-09-13T07:18:57;4.73;;;3.70;;
18001;SDS011;9126;48.160;17.130;2022-09-13T07:21:25;5.65;;;3.85;;
18001;SDS011;9126;48.160;17.130;2022-09-13T07:23:54;9.30;;;3.50;;
18001;SDS011;9126;48.160;17.130;2022-09-13T07:26:23;7.23;;;5.27;;
18001;SDS011;9126;48.160;17.130;2022-09-13T07:28:53;7.10;;;3.50;;
18001;SDS011;9126;48.160;17.130;2022-09-13T07:31:25;5.03;;;3.85;;
18001;SDS011;9126;48.160;17.130;2022-09-13T07:33:55;4.45;;;3.30;;
18001;SDS011;9126;48.160;17.130;2022-09-13T07:36:23;4.70;;;3.08;;
18001;SDS011;9126;48.160;17.130;2022-09-13T07:38:51;6.30;;;3.40;;
18001;SDS011;9126;48.160;17.130;2022-09-13T07:41:19;7.23;;;3.53;;
18001;SDS011;9126;48.160;17.130;2022-09-13T07:43:49;5.43;;;3.17;;
18001;SDS011;9126;48.160;17.130;2022-09-13T07:46:17;6.53;;;3.28;;
18001;SDS011;9126;48.160;17.130;2022-09-13T07:48:48;5.57;;;3.92;;
18001;SDS011;9126;48.160;17.130;2022-09-13T07:51:18;4.85;;;2.78;;
18001;SDS011;9126;48.160;17.130;2022-09-13T07:53:47;3.70;;;3.40;;
18001;SDS011;9126;48.160;17.130;2022-09-13T07:56:17;5.53;;;3.00;;
18001;SDS011;9126;48.160;17.130;2022-09-13T07:58:49;9.50;;;3.47;;
18001;SDS011;9126;48.160;17.130;2022-09-13T08:01:20;5.75;;;3.08;;
18001;SDS011;9126;48.160;17.130;2022-09-13T08:03:50;7.90;;;3.17;;
18001;SDS011;9126;48.160;17.130;2022-09-13T08:06:18;6.88;;;3.03;;
18001;SDS011;9126;48.160;17.130;2022-09-13T08:08:46;3.50;;;2.80;;
18001;SDS011;9126;48.160;17.130;2022-09-13T08:11:17;7.70;;;3.85;;
18001;SDS011;9126;48.160;17.130;2022-09-13T08:13:48;4.13;;;2.75;;
18001;SDS011;9126;48.160;17.130;2022-09-13T08:16:18;7.43;;;3.10;;
18001;SDS011;9126;48.160;17.130;2022-09-13T08:18:48;3.00;;;2.70;;
18001;SDS011;9126;48.160;17.130;2022-09-13T08:21:18;4.72;;;3.05;;
18001;SDS011;9126;48.160;17.130;2022-09-13T08:23:52;8.98;;;3.05;;
18001;SDS011;9126;48.160;17.130;2022-09-13T08:26:21;4.47;;;2.80;;
18001;SDS011;9126;48.160;17.130;2022-09-13T08:28:48;5.95;;;2.92;;
18001;SDS011;9126;48.160;17.130;2022-09-13T08:31:20;7.63;;;3.33;;
18001;SDS011;9126;48.160;17.130;2022-09-13T08:33:48;4.35;;;3.05;;
18001;SDS011;9126;48.160;17.130;2022-09-13T08:36:22;4.22;;;3.28;;
18001;SDS011;9126;48.160;17.130;2022-09-13T08:38:54;4.30;;;3.22;;
18001;SDS011;9126;48.160;17.130;2022-09-13T08:44:25;8.05;;;3.28;;
18001;SDS011;9126;48.160;17.130;2022-09-13T08:46:56;4.53;;;3.10;;
18001;SDS011;9126;48.160;17.130;2022-09-13T08:49:33;5.93;;;2.78;;
18001;SDS011;9126;48.160;17.130;2022-09-13T08:52:15;6.00;;;2.70;;
18001;SDS011;9126;48.160;17.130;2022-09-13T08:54:57;3.45;;;2.53;;
18001;SDS011;9126;48.160;17.130;2022-09-13T08:57:28;4.97;;;2.30;;
18001;SDS011;9126;48.160;17.130;2022-09-13T09:00:02;3.20;;;2.05;;
18001;SDS011;9126;48.160;17.130;2022-09-13T09:02:47;5.18;;;2.72;;
18001;SDS011;9126;48.160;17.130;2022-09-13T09:05:33;3.80;;;2.53;;
18001;SDS011;9126;48.160;17.130;2022-09-13T09:08:12;4.43;;;2.75;;
18001;SDS011;9126;48.160;17.130;2022-09-13T09:10:46;6.47;;;3.13;;
18001;SDS011;9126;48.160;17.130;2022-09-13T09:13:16;3.17;;;2.88;;
18001;SDS011;9126;48.160;17.130;2022-09-13T09:15:52;6.18;;;2.83;;
18001;SDS011;9126;48.160;17.130;2022-09-13T09:18:24;5.13;;;2.83;;
18001;SDS011;9126;48.160;17.130;2022-09-13T09:20:58;6.63;;;3.13;;
18001;SDS011;9126;48.160;17.130;2022-09-13T09:23:29;2.80;;;2.50;;
18001;SDS011;9126;48.160;17.130;2022-09-13T09:26:10;5.00;;;2.30;;
18001;SDS011;9126;48.160;17.130;2022-09-13T09:28:41;3.47;;;2.60;;
18001;SDS011;9126;48.160;17.130;2022-09-13T09:31:09;4.32;;;2.83;;
18001;SDS011;9126;48.160;17.130;2022-09-13T09:33:54;3.97;;;2.92;;
18001;SDS011;9126;48.160;17.130;2022-09-13T09:36:30;4.13;;;2.30;;
18001;SDS011;9126;48.160;17.130;2022-09-13T09:39:03;6.05;;;2.55;;
18001;SDS011;9126;48.160;17.130;2022-09-13T09:41:31;3.80;;;2.72;;
18001;SDS011;9126;48.160;17.130;2022-09-13T09:44:05;6.80;;;2.78;;
18001;SDS011;9126;48.160;17.130;2022-09-13T09:46:44;3.42;;;2.50;;
18001;SDS011;9126;48.160;17.130;2022-09-13T09:49:15;5.75;;;2.95;;
18001;SDS011;9126;48.160;17.130;2022-09-13T09:52:04;5.38;;;2.67;;
18001;SDS011;9126;48.160;17.130;2022-09-13T09:54:34;8.63;;;3.22;;
18001;SDS011;9126;48.160;17.130;2022-09-13T09:57:03;8.05;;;3.17;;
18001;SDS011;9126;48.160;17.130;2022-09-13T09:59:31;4.20;;;2.78;;
18001;SDS011;9126;48.160;17.130;2022-09-13T10:01:59;3.42;;;2.10;;
18001;SDS011;9126;48.160;17.130;2022-09-13T10:04:31;3.28;;;2.58;;
18001;SDS011;9126;48.160;17.130;2022-09-13T10:07:16;5.32;;;2.90;;
18001;SDS011;9126;48.160;17.130;2022-09-13T10:09:53;7.03;;;2.63;;
18001;SDS011;9126;48.160;17.130;2022-09-13T10:12:37;3.42;;;2.33;;
18001;SDS011;9126;48.160;17.130;2022-09-13T10:15:10;3.08;;;2.50;;
18001;SDS011;9126;48.160;17.130;2022-09-13T10:17:41;7.05;;;2.97;;
18001;SDS011;9126;48.160;17.130;2022-09-13T10:20:18;4.82;;;2.75;;
18001;SDS011;9126;48.160;17.130;2022-09-13T10:23:07;4.13;;;2.85;;
18001;SDS011;9126;48.160;17.130;2022-09-13T10:25:37;4.82;;;2.67;;
18001;SDS011;9126;48.160;17.130;2022-09-13T10:28:05;7.72;;;2.83;;
18001;SDS011;9126;48.160;17.130;2022-09-13T10:30:44;4.20;;;2.65;;
18001;SDS011;9126;48.160;17.130;2022-09-13T10:33:20;5.50;;;2.97;;
18001;SDS011;9126;48.160;17.130;2022-09-13T10:35:52;4.78;;;2.40;;
18001;SDS011;9126;48.160;17.130;2022-09-13T10:38:24;31.08;;;5.70;;
18001;SDS011;9126;48.160;17.130;2022-09-13T10:40:55;3.63;;;2.45;;
18001;SDS011;9126;48.160;17.130;2022-09-13T10:43:25;3.83;;;1.90;;
18001;SDS011;9126;48.160;17.130;2022-09-13T10:46:20;32.67;;;4.03;;
18001;SDS011;9126;48.160;17.130;2022-09-13T10:48:49;8.82;;;3.13;;
18001;SDS011;9126;48.160;17.130;2022-09-13T10:51:27;2.40;;;2.20;;
18001;SDS011;9126;48.160;17.130;2022-09-13T10:54:08;3.80;;;2.10;;
18001;SDS011;9126;48.160;17.130;2022-09-13T10:56:42;2.85;;;2.05;;
18001;SDS011;9126;48.160;17.130;2022-09-13T10:59:14;4.78;;;2.30;;
18001;SDS011;9126;48.160;17.130;2022-09-13T11:01:43;3.33;;;2.15;;
18001;SDS011;9126;48.160;17.130;2022-09-13T11:04:25;3.70;;;2.58;;
18001;SDS011;9126;48.160;17.130;2022-09-13T11:07:21;4.10;;;2.60;;
18001;SDS011;9126;48.160;17.130;2022-09-13T11:10:59;4.70;;;2.33;;
18001;SDS011;9126;48.160;17.130;2022-09-13T11:13:47;5.43;;;2.50;;
18001;SDS011;9126;48.160;17.130;2022-09-13T11:16:30;2.60;;;2.28;;
18001;SDS011;9126;48.160;17.130;2022-09-13T11:19:13;3.40;;;1.90;;
18001;SDS011;9126;48.160;17.130;2022-09-13T11:22:44;4.93;;;2.30;;
18001;SDS011;9126;48.160;17.130;2022-09-13T11:25:27;4.53;;;2.25;;
18001;SDS011;9126;48.160;17.130;2022-09-13T11:28:24;3.75;;;2.30;;
18001;SDS011;9126;48.160;17.130;2022-09-13T11:31:02;4.20;;;1.90;;
18001;SDS011;9126;48.160;17.130;2022-09-13T11:33:41;6.35;;;2.35;;
18001;SDS011;9126;48.160;17.130;2022-09-13T11:39:26;5.80;;;2.40;;
18001;SDS011;9126;48.160;17.130;2022-09-13T11:42:00;3.47;;;2.40;;
18001;SDS011;9126;48.160;17.130;2022-09-13T11:53:55;4.00;;;2.63;;
18001;SDS011;9126;48.160;17.130;2022-09-13T11:56:31;4.68;;;2.13;;
18001;SDS011;9126;48.160;17.130;2022-09-13T11:59:06;3.35;;;2.25;;
18001;SDS011;9126;48.160;17.130;2022-09-13T12:01:40;3.53;;;2.28;;
18001;SDS011;9126;48.160;17.130;2022-09-13T12:04:11;5.90;;;2.85;;
18001;SDS011;9126;48.160;17.130;2022-09-13T12:06:47;5.90;;;2.20;;
18001;SDS011;9126;48.160;17.130;2022-09-13T12:09:19;3.17;;;1.95;;
18001;SDS011;9126;48.160;17.130;2022-09-13T12:11:51;5.65;;;2.17;;
18001;SDS011;9126;48.160;17.130;2022-09-13T12:14:24;2.50;;;1.95;;
18001;SDS011;9126;48.160;17.130;2022-09-13T12:17:03;3.78;;;2.00;;
18001;SDS011;9126;48.160;17.130;2022-09-13T12:19:39;9.77;;;2.53;;
18001;SDS011;9126;48.160;17.130;2022-09-13T12:22:15;3.97;;;2.20;;
18001;SDS011;9126;48.160;17.130;2022-09-13T12:24:44;2.95;;;2.00;;
18001;SDS011;9126;48.160;17.130;2022-09-13T12:27:24;7.13;;;1.98;;
18001;SDS011;9126;48.160;17.130;2022-09-13T12:30:08;4.38;;;2.67;;
18001;SDS011;9126;48.160;17.130;2022-09-13T12:32:42;6.70;;;2.30;;
18001;SDS011;9126;48.160;17.130;2022-09-13T12:35:14;2.78;;;2.30;;
18001;SDS011;9126;48.160;17.130;2022-09-13T12:37:56;4.63;;;2.03;;
18001;SDS011;9126;48.160;17.130;2022-09-13T12:40:51;4.28;;;1.80;;
18001;SDS011;9126;48.160;17.130;2022-09-13T12:46:51;4.22;;;2.10;;
18001;SDS011;9126;48.160;17.130;2022-09-13T12:49:46;4.05;;;1.92;;
18001;SDS011;9126;48.160;17.130;2022-09-13T12:52:29;5.60;;;1.98;;
18001;SDS011;9126;48.160;17.130;2022-09-13T12:58:06;5.32;;;1.95;;
18001;SDS011;9126;48.160;17.130;2022-09-13T13:01:00;3.78;;;2.10;;
18001;SDS011;9126;48.160;17.130;2022-09-13T13:03:35;3.50;;;2.00;;
18001;SDS011;9126;48.160;17.130;2022-09-13T13:06:10;4.38;;;1.63;;
18001;SDS011;9126;48.160;17.130;2022-09-13T13:08:47;2.00;;;1.77;;
18001;SDS011;9126;48.160;17.130;2022-09-13T13:11:28;3.53;;;2.00;;
18001;SDS011;9126;48.160;17.130;2022-09-13T13:14:29;7.60;;;2.42;;
18001;SDS011;9126;48.160;17.130;2022-09-13T13:27:38;3.17;;;1.50;;
18001;SDS011;9126;48.160;17.130;2022-09-13T13:36:45;10.50;;;2.20;;
18001;SDS011;9126;48.160;17.130;2022-09-13T13:39:31;2.78;;;1.75;;
18001;SDS011;9126;48.160;17.130;2022-09-13T13:42:00;4.25;;;2.25;;
18001;SDS011;9126;48.160;17.130;2022-09-13T13:45:03;2.53;;;1.80;;
18001;SDS011;9126;48.160;17.130;2022-09-13T13:50:35;4.00;;;1.80;;
18001;SDS011;9126;48.160;17.130;2022-09-13T13:54:03;4.70;;;2.20;;
18001;SDS011;9126;48.160;17.130;2022-09-13T13:57:51;68.07;;;6.85;;
18001;SDS011;9126;48.160;17.130;2022-09-13T14:10:32;6.70;;;2.25;;
18001;SDS011;9126;48.160;17.130;2022-09-13T14:13:16;2.63;;;2.03;;
18001;SDS011;9126;48.160;17.130;2022-09-13T14:15:52;4.70;;;2.20;;
18001;SDS011;9126;48.160;17.130;2022-09-13T14:18:29;3.38;;;2.00;;
18001;SDS011;9126;48.160;17.130;2022-09-13T14:21:19;3.03;;;1.80;;
18001;SDS011;9126;48.160;17.130;2022-09-13T14:23:48;7.53;;;1.75;;
18001;SDS011;9126;48.160;17.130;2022-09-13T14:26:15;3.50;;;1.77;;
18001;SDS011;9126;48.160;17.130;2022-09-13T14:28:42;6.82;;;2.08;;
18001;SDS011;9126;48.160;17.130;2022-09-13T14:31:14;16.63;;;2.58;;
18001;SDS011;9126;48.160;17.130;2022-09-13T14:33:44;5.78;;;1.83;;
18001;SDS011;9126;48.160;17.130;2022-09-13T14:36:16;5.60;;;2.00;;
18001;SDS011;9126;48.160;17.130;2022-09-13T14:38:46;4.60;;;2.08;;
18001;SDS011;9126;48.160;17.130;2022-09-13T14:41:15;3.17;;;1.90;;
18001;SDS011;9126;48.160;17.130;2022-09-13T14:44:14;3.22;;;1.45;;
18001;SDS011;9126;48.160;17.130;2022-09-13T14:47:26;6.85;;;1.80;;
18001;SDS011;9126;48.160;17.130;2022-09-13T14:50:10;5.53;;;3.38;;
18001;SDS011;9126;48.160;17.130;2022-09-13T14:52:49;2.80;;;2.00;;
18001;SDS011;9126;48.160;17.130;2022-09-13T14:55:19;4.15;;;2.10;;
18001;SDS011;9126;48.160;17.130;2022-09-13T14:57:52;6.60;;;2.08;;
18001;SDS011;9126;48.160;17.130;2022-09-13T15:00:24;1.83;;;1.73;;
18001;SDS011;9126;48.160;17.130;2022-09-13T15:02:52;2.20;;;1.80;;
18001;SDS011;9126;48.160;17.130;2022-09-13T15:05:22;7.65;;;1.70;;
18001;SDS011;9126;48.160;17.130;2022-09-13T15:07:55;4.40;;;1.63;;
18001;SDS011;9126;48.160;17.130;2022-09-13T15:10:24;3.78;;;2.60;;
18001;SDS011;9126;48.160;17.130;2022-09-13T15:12:54;4.30;;;2.10;;
18001;SDS011;9126;48.160;17.130;2022-09-13T15:15:34;1.63;;;1.38;;
18001;SDS011;9126;48.160;17.130;2022-09-13T15:21:51;4.43;;;2.00;;
18001;SDS011;9126;48.160;17.130;2022-09-13T15:24:23;2.08;;;1.85;;
18001;SDS011;9126;48.160;17.130;2022-09-13T15:27:41;5.22;;;2.35;;
18001;SDS011;9126;48.160;17.130;2022-09-13T15:30:19;4.03;;;2.67;;
18001;SDS011;9126;48.160;17.130;2022-09-13T15:33:05;4.85;;;2.00;;
18001;SDS011;9126;48.160;17.130;2022-09-13T15:39:48;3.25;;;1.98;;
18001;SDS011;9126;48.160;17.130;2022-09-13T15:45:32;2.15;;;1.80;;
18001;SDS011;9126;48.160;17.130;2022-09-13T15:48:01;4.55;;;2.33;;
18001;SDS011;9126;48.160;17.130;2022-09-13T15:50:45;2.95;;;2.08;;
18001;SDS011;9126;48.160;17.130;2022-09-13T15:53:35;5.47;;;2.67;;
18001;SDS011;9126;48.160;17.130;2022-09-13T15:56:08;4.40;;;2.42;;
18001;SDS011;9126;48.160;17.130;2022-09-13T15:58:39;4.03;;;2.28;;
18001;SDS011;9126;48.160;17.130;2022-09-13T16:01:06;5.50;;;2.22;;
18001;SDS011;9126;48.160;17.130;2022-09-13T16:03:37;5.53;;;2.03;;
18001;SDS011;9126;48.160;17.130;2022-09-13T16:06:05;2.75;;;2.33;;
18001;SDS011;9126;48.160;17.130;2022-09-13T16:08:57;2.53;;;1.83;;
18001;SDS011;9126;48.160;17.130;2022-09-13T16:11:35;6.40;;;3.20;;
18001;SDS011;9126;48.160;17.130;2022-09-13T16:14:04;4.38;;;2.25;;
18001;SDS011;9126;48.160;17.130;2022-09-13T16:16:32;4.18;;;2.38;;
18001;SDS011;9126;48.160;17.130;2022-09-13T16:19:21;9.27;;;2.50;;
18001;SDS011;9126;48.160;17.130;2022-09-13T16:21:49;8.55;;;2.28;;
18001;SDS011;9126;48.160;17.130;2022-09-13T16:24:16;3.08;;;2.72;;
18001;SDS011;9126;48.160;17.130;2022-09-13T16:26:49;3.05;;;1.80;;
18001;SDS011;9126;48.160;17.130;2022-09-13T16:29:16;8.23;;;2.35;;
18001;SDS011;9126;48.160;17.130;2022-09-13T16:31:43;2.45;;;1.60;;
18001;SDS011;9126;48.160;17.130;2022-09-13T16:34:15;12.13;;;2.33;;
18001;SDS011;9126;48.160;17.130;2022-09-13T16:36:43;2.30;;;1.52;;